Time;durP1;ratioP1;P1;durP2;ratioP2;P2;SDS_P1;SDS_P2;PMS_P1;PMS_P2;Temp;Humidity;BMP_temperature;BMP_pressure;BME280_temperature;BME280_humidity;BME280_pressure;Samples;Min_cycle;Max_cycle;Signal;HPM_P1;HPM_P2
2023/10/23 00:00:12;;;;;;;4.63;2.70;;;;;;;16.17;62.50;100663.69;681221;29;1322;-96
2023/10/23 00:00:33;;;;;;;3.65;2.75;;;;;;;16.10;62.55;100647.88;678550;29;1304;-95
2023/10/23 00:00:54;;;;;;;3.50;2.60;;;;;;;16.17;62.74;100661.06;681230;29;1370;-96
2023/10/23 00:01:15;;;;;;;3.92;2.55;;;;;;;16.16;62.54;100655.78;678641;29;1272;-96
2023/10/23 00:01:38;;;;;;;3.70;2.57;;;;;;;16.11;62.60;100649.63;678838;29;1498;-95
2023/10/23 00:01:59;;;;;;;3.60;2.45;;;;;;;16.15;62.41;100662.81;680932;29;1437;-96
2023/10/23 00:02:20;;;;;;;3.45;2.33;;;;;;;16.13;62.49;100650.50;676039;29;1509;-94
2023/10/23 00:02:41;;;;;;;3.50;2.38;;;;;;;16.19;62.55;100661.06;675889;29;1310;-95
2023/10/23 00:03:03;;;;;;;3.42;2.50;;;;;;;16.11;62.54;100655.75;676252;29;1264;-95
2023/10/23 00:03:24;;;;;;;3.33;2.70;;;;;;;16.17;62.46;100660.19;673747;29;1268;-96
2023/10/23 00:03:47;;;;;;;3.47;2.70;;;;;;;16.25;62.57;100671.66;676365;29;1292;-95
2023/10/23 00:04:09;;;;;;;4.10;2.75;;;;;;;16.24;62.29;100664.59;678602;29;1247;-96
2023/10/23 00:04:32;;;;;;;4.82;2.65;;;;;;;16.17;62.23;100649.66;673665;29;1366;-95
2023/10/23 00:04:53;;;;;;;5.50;2.63;;;;;;;16.16;62.29;100655.78;673336;29;1266;-96
2023/10/23 00:05:14;;;;;;;4.70;2.50;;;;;;;16.17;62.30;100658.41;678570;29;1262;-96
2023/10/23 00:05:37;;;;;;;4.40;2.60;;;;;;;16.15;62.51;100649.66;676279;29;1181;-96
2023/10/23 00:05:58;;;;;;;3.28;2.50;;;;;;;16.17;62.36;100655.78;675645;29;1452;-96
2023/10/23 00:06:19;;;;;;;3.90;2.40;;;;;;;16.17;62.29;100657.56;678947;29;1292;-96
2023/10/23 00:06:40;;;;;;;4.80;2.65;;;;;;;16.27;62.35;100669.91;673275;29;1391;-96
2023/10/23 00:07:01;;;;;;;5.38;2.83;;;;;;;16.27;62.42;100669.00;678311;29;1366;-96
2023/10/23 00:07:22;;;;;;;4.40;2.97;;;;;;;16.24;62.43;100672.50;675869;29;1378;-95
2023/10/23 00:07:47;;;;;;;3.90;2.92;;;;;;;16.22;62.30;100665.47;676222;29;1280;-95
2023/10/23 00:08:08;;;;;;;4.70;2.90;;;;;;;16.28;62.29;100676.03;683970;28;1454;-96
2023/10/23 00:08:31;;;;;;;4.53;2.73;;;;;;;16.25;62.07;100662.84;678714;29;1194;-95
2023/10/23 00:08:52;;;;;;;4.15;2.72;;;;;;;16.25;62.20;100660.22;673541;29;1252;-96
2023/10/23 00:09:15;;;;;;;3.38;2.60;;;;;;;16.27;62.26;100674.28;678471;29;1241;-96
2023/10/23 00:09:36;;;;;;;3.90;2.60;;;;;;;16.23;62.29;100656.69;678492;29;1373;-96
2023/10/23 00:09:57;;;;;;;4.43;2.53;;;;;;;16.24;62.21;100666.34;675808;29;1433;-95
2023/10/23 00:10:18;;;;;;;4.90;2.75;;;;;;;16.27;62.22;100666.38;678247;29;1368;-95
2023/10/23 00:10:42;;;;;;;7.20;3.20;;;;;;;16.34;62.28;100680.44;681272;29;1230;-96
2023/10/23 00:11:03;;;;;;;6.45;2.90;;;;;;;16.31;61.97;100676.91;677768;28;1415;-96
2023/10/23 00:11:25;;;;;;;4.32;2.72;;;;;;;16.29;62.13;100670.78;676167;29;1948;-95
2023/10/23 00:11:46;;;;;;;4.43;2.60;;;;;;;16.30;62.10;100674.28;675826;29;1380;-96
2023/10/23 00:12:08;;;;;;;4.57;2.60;;;;;;;16.26;62.20;100662.88;680819;29;1280;-96
2023/10/23 00:12:29;;;;;;;3.88;2.40;;;;;;;16.26;62.12;100673.41;678433;29;1351;-96
2023/10/23 00:12:51;;;;;;;2.80;2.47;;;;;;;16.30;62.03;100674.28;678233;29;1522;-96
2023/10/23 00:13:12;;;;;;;3.43;2.70;;;;;;;16.25;61.98;100666.38;680727;29;1259;-95
2023/10/23 00:13:32;;;;;;;5.00;2.70;;;;;;;16.31;62.11;100682.19;678164;29;1242;-96
2023/10/23 00:13:57;;;;;;;5.60;2.72;;;;;;;16.22;62.10;100661.06;675922;29;1278;-94
2023/10/23 00:14:17;;;;;;;5.13;2.60;;;;;;;16.23;61.93;100659.31;675073;29;1280;-96
2023/10/23 00:14:38;;;;;;;4.75;2.60;;;;;;;16.32;62.05;100677.81;680976;29;1223;-95
2023/10/23 00:15:00;;;;;;;4.43;2.50;;;;;;;16.30;62.04;100679.56;680961;29;1244;-96
2023/10/23 00:15:21;;;;;;;3.97;2.65;;;;;;;16.36;62.07;100690.13;678179;29;1469;-95
2023/10/23 00:15:45;;;;;;;4.00;2.70;;;;;;;16.23;62.19;100668.06;678398;29;1334;-96
2023/10/23 00:16:06;;;;;;;4.20;2.83;;;;;;;16.30;62.15;100680.41;681193;29;1155;-95
2023/10/23 00:16:30;;;;;;;3.53;2.60;;;;;;;16.24;62.14;100664.59;675900;29;1259;-96
2023/10/23 00:16:51;;;;;;;3.95;2.67;;;;;;;16.24;61.98;100668.97;678272;29;1325;-95
2023/10/23 00:17:12;;;;;;;4.82;2.80;;;;;;;16.24;62.01;100668.97;683653;28;1385;-95
2023/10/23 00:17:33;;;;;;;5.40;2.90;;;;;;;16.21;61.90;100664.56;683456;29;1399;-96
2023/10/23 00:17:54;;;;;;;4.77;2.67;;;;;;;16.23;62.05;100672.47;673127;29;1253;-96
2023/10/23 00:18:15;;;;;;;3.60;2.53;;;;;;;16.33;62.03;100687.44;683471;29;1143;-95
2023/10/23 00:18:36;;;;;;;4.60;2.70;;;;;;;16.23;62.00;100667.22;680879;29;1500;-95
2023/10/23 00:18:57;;;;;;;4.20;2.60;;;;;;;16.29;61.88;100672.53;678121;29;1239;-95
2023/10/23 00:19:18;;;;;;;4.30;2.70;;;;;;;16.24;62.05;100668.97;683087;28;1197;-96
2023/10/23 00:19:38;;;;;;;4.00;2.83;;;;;;;16.23;62.06;100672.47;678232;29;1265;-96
2023/10/23 00:20:02;;;;;;;5.35;3.25;;;;;;;16.20;62.22;100669.81;683449;28;1415;-95
2023/10/23 00:20:23;;;;;;;5.47;3.45;;;;;;;16.24;62.14;100668.97;675875;29;1279;-96
2023/10/23 00:20:43;;;;;;;4.82;3.10;;;;;;;16.25;62.05;100682.19;675513;29;1288;-96
2023/10/23 00:21:04;;;;;;;3.70;2.97;;;;;;;16.29;61.99;100689.19;678106;29;1224;-96
2023/10/23 00:21:25;;;;;;;3.92;3.10;;;;;;;16.32;62.03;100696.22;675959;29;1198;-95
2023/10/23 00:21:46;;;;;;;4.63;3.35;;;;;;;16.30;61.95;100680.41;673173;29;1092;-96
2023/10/23 00:22:07;;;;;;;6.10;3.30;;;;;;;16.28;61.82;100676.03;677977;29;1251;-96
2023/10/23 00:22:27;;;;;;;5.90;3.10;;;;;;;16.27;62.28;100679.53;683676;29;1254;-96
2023/10/23 00:22:48;;;;;;;5.75;3.10;;;;;;;16.25;61.97;100670.75;678013;29;1260;-95
2023/10/23 00:23:09;;;;;;;5.00;3.10;;;;;;;16.26;61.98;100672.50;672906;29;1295;-96
2023/10/23 00:23:30;;;;;;;4.95;3.30;;;;;;;16.35;61.98;100688.31;678090;29;1175;-96
2023/10/23 00:23:51;;;;;;;4.40;3.10;;;;;;;16.29;61.97;100672.53;675548;29;1330;-95
2023/10/23 00:24:13;;;;;;;4.00;3.03;;;;;;;16.27;61.98;100676.91;678227;29;1295;-96
2023/10/23 00:24:34;;;;;;;4.05;2.83;;;;;;;16.30;61.87;100682.19;678118;29;1288;-95
2023/10/23 00:24:55;;;;;;;3.85;2.67;;;;;;;16.23;61.93;100675.13;672762;29;1410;-96
2023/10/23 00:25:16;;;;;;;3.97;2.70;;;;;;;16.24;61.91;100668.97;675552;29;1152;-94
2023/10/23 00:25:37;;;;;;;4.30;2.70;;;;;;;16.28;61.92;100681.28;678302;29;1084;-95
2023/10/23 00:25:58;;;;;;;4.80;2.90;;;;;;;16.26;62.21;100675.16;672879;29;1191;-96
2023/10/23 00:26:18;;;;;;;4.68;2.80;;;;;;;16.34;61.98;100691.84;677996;29;1164;-95
2023/10/23 00:26:45;;;;;;;3.88;2.70;;;;;;;16.33;61.82;100689.22;678170;29;1348;-95
2023/10/23 00:27:06;;;;;;;3.72;2.60;;;;;;;16.28;61.89;100678.66;681112;29;1317;-95
2023/10/23 00:27:27;;;;;;;4.32;2.92;;;;;;;16.35;61.82;100690.09;678082;29;1372;-96
2023/10/23 00:27:48;;;;;;;4.22;3.00;;;;;;;16.34;62.02;100686.56;675489;29;1273;-95
2023/10/23 00:28:10;;;;;;;4.70;3.33;;;;;;;16.31;61.82;100679.53;677964;29;1128;-94
2023/10/23 00:28:32;;;;;;;4.18;3.05;;;;;;;16.37;61.98;100691.88;678048;29;1091;-95
2023/10/23 00:28:53;;;;;;;4.25;2.85;;;;;;;16.37;61.64;100683.97;672861;29;1262;-95
2023/10/23 00:29:13;;;;;;;3.80;2.80;;;;;;;16.39;61.80;100694.47;677903;29;1172;-96
2023/10/23 00:29:34;;;;;;;3.85;2.92;;;;;;;16.32;61.70;100677.81;673203;29;1577;-96
2023/10/23 00:29:55;;;;;;;4.47;3.38;;;;;;;16.39;61.73;100692.75;672792;29;1248;-96
2023/10/23 00:30:17;;;;;;;5.03;3.50;;;;;;;16.37;61.87;100691.88;678195;29;1322;-95
2023/10/23 00:30:39;;;;;;;4.97;3.28;;;;;;;16.37;61.75;100681.34;680715;29;1435;-95
2023/10/23 00:31:02;;;;;;;5.20;3.20;;;;;;;16.40;61.76;100697.13;683218;28;1315;-96
2023/10/23 00:31:23;;;;;;;4.60;2.97;;;;;;;16.40;61.81;100690.97;680456;29;1919;-95
2023/10/23 00:31:45;;;;;;;4.40;3.17;;;;;;;16.35;61.68;100683.06;675742;29;1226;-95
2023/10/23 00:32:06;;;;;;;4.50;3.25;;;;;;;16.40;61.75;100686.59;675719;29;1282;-95
2023/10/23 00:32:27;;;;;;;4.60;3.40;;;;;;;16.36;61.66;100679.59;680970;29;1253;-96
2023/10/23 00:32:47;;;;;;;4.35;3.25;;;;;;;16.34;61.58;100686.56;680745;29;1197;-96
2023/10/23 00:33:08;;;;;;;4.47;3.17;;;;;;;16.36;61.59;100684.84;680699;29;1233;-95
2023/10/23 00:33:29;;;;;;;4.60;3.07;;;;;;;16.35;61.56;100677.81;675333;29;1319;-96
2023/10/23 00:33:50;;;;;;;5.35;3.35;;;;;;;16.42;61.63;100678.72;678155;29;1347;-96
2023/10/23 00:34:10;;;;;;;5.68;3.60;;;;;;;16.46;61.58;100687.50;677951;29;1372;-96
2023/10/23 00:34:31;;;;;;;5.90;3.63;;;;;;;16.48;61.53;100694.53;678173;29;1293;-96
2023/10/23 00:34:52;;;;;;;5.00;3.50;;;;;;;16.38;61.44;100680.47;678501;29;1316;-96
2023/10/23 00:35:13;;;;;;;4.65;3.53;;;;;;;16.40;61.81;100688.34;683293;28;1216;-96
2023/10/23 00:35:34;;;;;;;4.35;3.53;;;;;;;16.41;61.64;100693.63;678145;29;1360;-95
2023/10/23 00:35:55;;;;;;;4.40;3.35;;;;;;;16.40;61.62;100697.13;675417;29;1280;-96
2023/10/23 00:36:17;;;;;;;4.40;3.40;;;;;;;16.42;61.69;100699.78;675179;29;1234;-95
2023/10/23 00:36:38;;;;;;;5.30;3.65;;;;;;;16.43;61.57;100691.84;680498;29;1235;-95
2023/10/23 00:36:58;;;;;;;5.63;3.80;;;;;;;16.38;61.60;100688.34;675383;29;1262;-96
2023/10/23 00:37:19;;;;;;;5.70;3.80;;;;;;;16.37;61.60;100691.88;675882;29;1139;-96
2023/10/23 00:37:40;;;;;;;4.75;3.30;;;;;;;16.33;61.71;100679.56;680648;29;1233;-95
2023/10/23 00:38:01;;;;;;;4.60;3.20;;;;;;;16.35;61.64;100688.31;680482;29;1154;-94
2023/10/23 00:38:22;;;;;;;5.97;3.47;;;;;;;16.41;61.72;100693.63;680699;29;1264;-95
2023/10/23 00:38:43;;;;;;;5.70;3.58;;;;;;;16.35;61.75;100683.06;677981;29;1240;-95
2023/10/23 00:39:04;;;;;;;5.43;3.60;;;;;;;16.34;61.77;100681.31;675060;29;1270;-96
2023/10/23 00:39:25;;;;;;;4.30;3.40;;;;;;;16.39;61.58;100697.13;675273;29;1268;-96
2023/10/23 00:39:46;;;;;;;4.50;3.17;;;;;;;16.40;61.80;100702.41;683564;28;1311;-95
2023/10/23 00:40:07;;;;;;;4.30;3.15;;;;;;;16.44;61.67;100706.81;680620;29;1282;-95
2023/10/23 00:40:29;;;;;;;4.18;3.00;;;;;;;16.45;61.72;100705.03;680605;29;1336;-96
2023/10/23 00:40:50;;;;;;;5.63;3.35;;;;;;;16.38;61.53;100688.34;678218;29;1319;-95
2023/10/23 00:41:11;;;;;;;9.15;3.42;;;;;;;16.44;61.62;100691.00;675289;29;1422;-96
2023/10/23 00:41:32;;;;;;;8.40;3.40;;;;;;;16.37;61.59;100696.25;675558;29;1228;-95
2023/10/23 00:41:52;;;;;;;4.13;2.70;;;;;;;16.35;61.68;100687.47;677971;29;1158;-96
2023/10/23 00:42:13;;;;;;;3.58;2.85;;;;;;;16.46;61.75;100700.66;678118;29;1375;-95
2023/10/23 00:42:34;;;;;;;4.07;3.10;;;;;;;16.36;61.54;100684.84;678371;29;1146;-95
2023/10/23 00:42:55;;;;;;;4.30;3.27;;;;;;;16.41;61.66;100698.03;683274;29;1251;-96
2023/10/23 00:43:23;;;;;;;3.65;3.22;;;;;;;16.43;61.76;100702.41;677847;29;1250;-96
2023/10/23 00:43:44;;;;;;;3.85;3.15;;;;;;;16.37;61.66;100690.97;675412;29;1301;-95
2023/10/23 00:44:05;;;;;;;4.20;3.22;;;;;;;16.37;61.58;100686.59;672763;29;1191;-95
2023/10/23 00:44:27;;;;;;;5.40;3.70;;;;;;;16.44;61.60;100696.28;675513;29;1447;-95
2023/10/23 00:44:49;;;;;;;5.20;3.60;;;;;;;16.51;61.46;100705.06;677987;29;1243;-96
2023/10/23 00:45:10;;;;;;;4.95;3.58;;;;;;;16.51;61.39;100704.16;678443;29;1176;-96
2023/10/23 00:45:31;;;;;;;4.80;3.35;;;;;;;16.41;61.51;100687.50;675664;29;1209;-96
2023/10/23 00:45:55;;;;;;;5.00;3.50;;;;;;;16.46;61.40;100690.13;678018;29;1371;-95
2023/10/23 00:46:19;;;;;;;6.60;3.88;;;;;;;16.54;61.37;100712.97;683178;28;1124;-94
2023/10/23 00:46:40;;;;;;;6.70;3.80;;;;;;;16.52;61.45;100705.94;678117;29;1376;-95
2023/10/23 00:47:01;;;;;;;6.38;3.65;;;;;;;16.47;61.61;100708.56;678190;29;1194;-95
2023/10/23 00:47:23;;;;;;;4.82;3.40;;;;;;;16.40;61.44;100696.25;678127;29;1366;-95
2023/10/23 00:47:44;;;;;;;5.40;3.40;;;;;;;16.42;61.64;100695.38;675215;29;1317;-95
2023/10/23 00:48:05;;;;;;;6.57;3.67;;;;;;;16.47;61.75;100705.06;677802;29;1209;-94
2023/10/23 00:48:27;;;;;;;7.00;3.60;;;;;;;16.39;61.57;100700.66;680515;29;1491;-95
2023/10/23 00:48:48;;;;;;;5.70;3.40;;;;;;;16.46;61.69;100711.19;670289;29;1664;-94
2023/10/23 00:49:09;;;;;;;4.70;3.35;;;;;;;16.48;61.71;100710.34;677853;29;1463;-96
2023/10/23 00:49:30;;;;;;;4.32;3.35;;;;;;;16.45;61.48;100702.41;683388;29;1214;-95
2023/10/23 00:49:51;;;;;;;4.10;3.20;;;;;;;16.43;61.51;100702.41;675204;29;1392;-95
2023/10/23 00:50:13;;;;;;;4.40;3.30;;;;;;;16.38;61.58;100693.63;672998;29;1266;-96
2023/10/23 00:50:34;;;;;;;4.30;3.20;;;;;;;16.43;61.67;100694.50;678019;29;1168;-95
2023/10/23 00:50:59;;;;;;;3.90;3.05;;;;;;;16.49;61.56;100708.56;675317;29;1382;-95
2023/10/23 00:51:21;;;;;;;5.03;3.60;;;;;;;16.40;61.56;100686.59;677642;29;1907;-96
2023/10/23 00:51:42;;;;;;;5.30;3.53;;;;;;;16.41;61.40;100690.13;675320;29;1318;-94
2023/10/23 00:52:03;;;;;;;6.57;3.90;;;;;;;16.43;61.50;100696.28;672852;29;1292;-95
2023/10/23 00:52:25;;;;;;;5.93;3.42;;;;;;;16.50;61.59;100707.69;678108;29;1231;-95
2023/10/23 00:52:46;;;;;;;5.72;3.58;;;;;;;16.48;61.50;100706.81;675966;29;1245;-95
2023/10/23 00:53:06;;;;;;;4.78;3.30;;;;;;;16.46;61.59;100704.16;678335;29;1149;-96
2023/10/23 00:53:31;;;;;;;4.57;3.42;;;;;;;16.48;61.63;100706.81;678294;29;1157;-95
2023/10/23 00:53:53;;;;;;;4.88;3.63;;;;;;;16.48;61.47;100705.06;681121;29;1238;-95
2023/10/23 00:54:14;;;;;;;4.40;3.45;;;;;;;16.47;61.54;100705.06;676144;29;1351;-96
2023/10/23 00:54:37;;;;;;;5.78;3.72;;;;;;;16.52;61.43;100705.94;675160;29;1211;-95
2023/10/23 00:54:58;;;;;;;6.18;4.03;;;;;;;16.52;61.52;100711.19;675362;29;1245;-95
2023/10/23 00:55:19;;;;;;;7.50;4.32;;;;;;;16.48;61.45;100691.91;680949;29;1230;-95
2023/10/23 00:55:40;;;;;;;6.78;4.25;;;;;;;16.50;61.53;100705.06;675455;29;1178;-96
2023/10/23 00:56:04;;;;;;;6.43;4.18;;;;;;;16.45;61.54;100689.25;677812;29;1154;-96
2023/10/23 00:56:26;;;;;;;13.45;4.40;;;;;;;16.49;61.51;100700.66;677589;29;1313;-95
2023/10/23 00:56:47;;;;;;;13.98;4.55;;;;;;;16.40;61.65;100697.13;675264;29;1195;-96
2023/10/23 00:57:08;;;;;;;5.47;4.30;;;;;;;16.43;61.41;100691.84;677847;29;1266;-96
2023/10/23 00:57:29;;;;;;;7.45;4.70;;;;;;;16.42;61.47;100691.88;683109;29;1307;-96
2023/10/23 00:57:50;;;;;;;7.88;5.10;;;;;;;16.43;61.47;100696.28;680882;29;1224;-95
2023/10/23 00:58:14;;;;;;;6.97;4.70;;;;;;;16.45;61.54;100705.03;680698;29;1360;-96
2023/10/23 00:58:40;;;;;;;5.72;4.47;;;;;;;16.43;61.30;100689.22;683439;29;1342;-96
2023/10/23 00:59:01;;;;;;;6.50;4.68;;;;;;;16.43;61.33;100694.50;675636;29;1277;-96
2023/10/23 00:59:22;;;;;;;6.38;4.85;;;;;;;16.48;61.58;100704.19;675742;29;1310;-95
2023/10/23 00:59:43;;;;;;;6.35;4.85;;;;;;;16.41;61.45;100696.25;686258;28;1368;-95
2023/10/23 01:00:05;;;;;;;7.38;4.95;;;;;;;16.49;61.42;100705.94;678141;29;1630;-95
2023/10/23 01:00:28;;;;;;;7.05;4.63;;;;;;;16.41;61.66;100693.63;675591;29;1199;-96
2023/10/23 01:00:49;;;;;;;7.20;4.70;;;;;;;16.47;61.38;100699.78;672808;29;1311;-95
2023/10/23 01:01:15;;;;;;;8.73;4.45;;;;;;;16.42;61.39;100689.25;681309;29;1332;-94
2023/10/23 01:01:41;;;;;;;9.68;4.80;;;;;;;16.51;61.42;100710.34;681879;29;1465;-95
2023/10/23 01:02:10;;;;;;;7.75;4.70;;;;;;;16.44;61.54;100695.38;679828;29;1227;-95
2023/10/23 01:02:35;;;;;;;9.30;4.50;;;;;;;16.44;61.38;100696.28;679858;29;1389;-96
2023/10/23 01:02:59;;;;;;;8.45;4.40;;;;;;;16.47;61.31;100697.16;682258;29;1458;-95
2023/10/23 01:03:40;;;;;;;6.70;4.03;;;;;;;16.46;61.33;100700.66;678345;29;1262;-95
2023/10/23 01:04:05;;;;;;;6.28;4.10;;;;;;;16.44;61.26;100698.03;677259;29;1087;-96
2023/10/23 01:04:36;;;;;;;5.90;4.25;;;;;;;16.48;61.24;100691.00;676681;29;1285;-95
2023/10/23 01:05:06;;;;;;;6.00;4.50;;;;;;;16.47;61.27;100698.00;678028;29;1285;-95
2023/10/23 01:05:29;;;;;;;6.07;4.57;;;;;;;16.52;61.12;100700.66;672889;29;1271;-96
2023/10/23 01:05:50;;;;;;;9.20;4.57;;;;;;;16.47;61.24;100691.88;678150;29;1442;-95
2023/10/23 01:06:14;;;;;;;9.55;4.40;;;;;;;16.48;61.39;100693.66;680491;29;1217;-95
2023/10/23 01:06:35;;;;;;;6.65;4.20;;;;;;;16.48;61.28;100693.66;675498;29;1230;-96
2023/10/23 01:06:57;;;;;;;5.07;3.90;;;;;;;16.53;61.20;100700.66;680746;29;1258;-95
2023/10/23 01:07:17;;;;;;;4.00;3.58;;;;;;;16.48;61.11;100685.75;677814;29;1236;-95
2023/10/23 01:07:38;;;;;;;4.18;3.78;;;;;;;16.50;61.22;100687.50;678017;29;1206;-96
2023/10/23 01:07:59;;;;;;;4.80;4.23;;;;;;;16.54;61.03;100693.66;672557;29;1238;-95
2023/10/23 01:08:20;;;;;;;7.63;4.85;;;;;;;16.60;61.14;100698.06;675689;29;1204;-96
2023/10/23 01:08:43;;;;;;;7.72;4.40;;;;;;;16.65;60.90;100701.59;680464;29;1284;-95
2023/10/23 01:09:03;;;;;;;7.72;4.38;;;;;;;16.74;60.82;100705.97;682929;28;1426;-95
2023/10/23 01:09:24;;;;;;;6.07;4.15;;;;;;;16.67;60.75;100705.97;680555;29;1245;-95
2023/10/23 01:09:45;;;;;;;6.35;4.45;;;;;;;16.68;60.58;100702.47;675498;29;1352;-96
2023/10/23 01:10:08;;;;;;;7.93;4.20;;;;;;;16.64;60.61;100684.00;680602;29;1297;-96
2023/10/23 01:10:28;;;;;;;7.82;4.25;;;;;;;16.64;60.62;100684.88;678040;29;1296;-95
2023/10/23 01:10:49;;;;;;;7.30;4.28;;;;;;;16.62;60.79;100686.66;674872;29;1275;-95
2023/10/23 01:11:10;;;;;;;7.70;4.90;;;;;;;16.74;60.67;100706.88;677858;29;1260;-96
2023/10/23 01:11:32;;;;;;;7.80;5.00;;;;;;;16.64;60.56;100690.16;679871;29;1954;-95
2023/10/23 01:11:53;;;;;;;8.23;5.00;;;;;;;16.62;60.69;100691.03;677874;29;1341;-95
2023/10/23 01:12:14;;;;;;;8.70;4.85;;;;;;;16.56;60.73;100684.00;674760;29;1396;-95
2023/10/23 01:12:35;;;;;;;8.73;4.70;;;;;;;16.56;60.68;100681.38;677991;29;1143;-95
2023/10/23 01:12:57;;;;;;;7.93;4.53;;;;;;;16.52;60.68;100684.84;677837;29;1256;-96
2023/10/23 01:13:17;;;;;;;6.90;4.10;;;;;;;16.56;60.86;100697.16;673056;29;1422;-95
2023/10/23 01:13:38;;;;;;;6.45;4.20;;;;;;;16.48;60.83;100677.84;677872;29;1297;-94
2023/10/23 01:13:59;;;;;;;7.60;4.57;;;;;;;16.62;60.69;100697.19;680542;29;1200;-95
2023/10/23 01:14:20;;;;;;;5.85;4.30;;;;;;;16.57;60.89;100698.94;675118;29;1254;-94
2023/10/23 01:14:41;;;;;;;5.50;3.88;;;;;;;16.61;60.70;100692.81;677814;29;1326;-94
2023/10/23 01:15:02;;;;;;;4.75;3.63;;;;;;;16.58;60.56;100685.75;675194;29;1258;-96
2023/10/23 01:15:23;;;;;;;5.25;3.63;;;;;;;16.61;60.50;100682.25;672791;29;1223;-95
2023/10/23 01:15:44;;;;;;;5.05;3.83;;;;;;;16.64;60.62;100700.69;677850;29;1306;-95
2023/10/23 01:16:05;;;;;;;4.22;3.60;;;;;;;16.50;60.70;100676.06;675181;29;1319;-95
2023/10/23 01:16:26;;;;;;;8.20;3.83;;;;;;;16.52;60.70;100688.38;680488;29;1205;-96
2023/10/23 01:16:46;;;;;;;8.30;3.97;;;;;;;16.59;60.84;100697.16;680283;29;1277;-94
2023/10/23 01:17:07;;;;;;;12.30;4.05;;;;;;;16.57;60.76;100699.81;675242;29;1322;-95
2023/10/23 01:17:28;;;;;;;8.70;4.00;;;;;;;16.59;60.59;100707.69;680493;29;1144;-95
2023/10/23 01:17:49;;;;;;;8.77;3.97;;;;;;;16.56;60.66;100697.16;675380;29;1172;-95
2023/10/23 01:18:11;;;;;;;5.00;4.00;;;;;;;16.57;60.81;100698.94;677868;29;1367;-95
2023/10/23 01:18:32;;;;;;;5.10;3.90;;;;;;;16.50;60.65;100686.63;678157;29;1457;-95
2023/10/23 01:18:53;;;;;;;6.28;4.05;;;;;;;16.61;60.67;100705.97;675304;29;1181;-94
2023/10/23 01:19:14;;;;;;;6.00;3.80;;;;;;;16.55;60.75;100693.66;675081;29;1285;-95
2023/10/23 01:19:34;;;;;;;5.17;3.73;;;;;;;16.52;60.76;100696.28;670207;29;1254;-95
2023/10/23 01:19:55;;;;;;;4.28;3.40;;;;;;;16.50;60.70;100686.63;680338;28;1189;-95
2023/10/23 01:20:17;;;;;;;4.28;3.60;;;;;;;16.55;60.76;100700.69;677761;29;1532;-94
2023/10/23 01:20:40;;;;;;;4.95;3.53;;;;;;;16.53;60.79;100695.41;678035;29;1229;-95
2023/10/23 01:21:01;;;;;;;4.82;3.60;;;;;;;16.46;60.77;100690.13;670055;29;1235;-95
2023/10/23 01:21:22;;;;;;;4.30;3.40;;;;;;;16.44;60.88;100688.38;678101;29;1541;-95
2023/10/23 01:21:43;;;;;;;5.38;3.60;;;;;;;16.43;60.84;100683.97;677861;29;1358;-94
2023/10/23 01:22:03;;;;;;;6.47;4.07;;;;;;;16.43;60.84;100677.84;675252;29;1224;-94
2023/10/23 01:22:24;;;;;;;6.72;4.50;;;;;;;16.45;60.89;100686.59;680469;29;1226;-94
2023/10/23 01:22:45;;;;;;;6.90;4.70;;;;;;;16.54;60.88;100701.56;685853;28;1263;-93
2023/10/23 01:23:07;;;;;;;6.53;4.50;;;;;;;16.41;60.86;100687.50;674669;29;1212;-95
2023/10/23 01:23:32;;;;;;;7.60;4.60;;;;;;;16.49;60.96;100704.19;672728;29;1336;-94
2023/10/23 01:23:56;;;;;;;6.63;4.25;;;;;;;16.48;60.88;100698.91;678209;29;1200;-94
2023/10/23 01:24:19;;;;;;;7.03;4.20;;;;;;;16.45;60.81;100689.25;677830;29;1298;-94
2023/10/23 01:24:43;;;;;;;6.47;3.80;;;;;;;16.38;60.91;100688.34;677478;29;1210;-95
2023/10/23 01:25:13;;;;;;;6.05;3.60;;;;;;;16.42;61.07;100698.00;677748;29;1403;-94
2023/10/23 01:25:33;;;;;;;4.78;3.38;;;;;;;16.43;60.87;100707.66;675281;29;1285;-94
2023/10/23 01:25:54;;;;;;;5.63;3.88;;;;;;;16.31;60.82;100681.31;677780;29;1122;-94
2023/10/23 01:26:15;;;;;;;6.18;3.92;;;;;;;16.37;60.90;100697.13;680989;29;1306;-94
2023/10/23 01:26:36;;;;;;;5.68;4.13;;;;;;;16.35;60.73;100696.22;680449;29;1173;-93
2023/10/23 01:26:57;;;;;;;5.13;3.90;;;;;;;16.36;60.89;100705.03;677920;29;1236;-94
2023/10/23 01:27:18;;;;;;;5.57;4.00;;;;;;;16.35;60.85;100706.75;680432;29;1317;-94
2023/10/23 01:27:41;;;;;;;6.22;4.13;;;;;;;16.32;61.19;100701.50;683200;29;1237;-94
2023/10/23 01:28:02;;;;;;;6.40;4.10;;;;;;;16.23;61.04;100696.19;677833;29;1256;-94
2023/10/23 01:28:22;;;;;;;6.50;4.13;;;;;;;16.27;61.01;100705.88;672695;29;1243;-94
2023/10/23 01:28:43;;;;;;;6.93;4.43;;;;;;;16.19;61.08;100692.66;677946;29;1242;-94
2023/10/23 01:29:04;;;;;;;6.50;4.60;;;;;;;16.30;60.99;100705.91;686153;28;1312;-93
2023/10/23 01:29:25;;;;;;;5.68;4.63;;;;;;;16.33;60.92;100705.03;678045;29;1162;-94
2023/10/23 01:29:46;;;;;;;5.90;4.38;;;;;;;16.29;60.79;100704.13;675506;29;1349;-94
2023/10/23 01:30:09;;;;;;;5.43;4.10;;;;;;;16.23;61.03;100698.81;675230;29;1325;-94
2023/10/23 01:30:31;;;;;;;6.40;4.50;;;;;;;16.18;61.14;100698.81;677626;29;1275;-93
2023/10/23 01:30:52;;;;;;;6.13;4.80;;;;;;;16.20;61.20;100704.94;680505;29;1229;-94
2023/10/23 01:31:12;;;;;;;7.43;5.07;;;;;;;16.16;61.15;100709.31;677744;29;1212;-94
2023/10/23 01:31:33;;;;;;;6.50;5.10;;;;;;;16.18;61.14;100707.56;675323;29;1891;-94
2023/10/23 01:31:54;;;;;;;11.07;4.90;;;;;;;16.17;61.17;100710.22;677860;29;1374;-93
2023/10/23 01:32:15;;;;;;;11.00;4.63;;;;;;;16.10;61.28;100704.03;683159;28;1093;-94
2023/10/23 01:32:36;;;;;;;14.93;5.05;;;;;;;16.10;61.27;100698.75;680701;29;1277;-94
2023/10/23 01:32:57;;;;;;;11.05;5.15;;;;;;;16.14;61.00;100704.91;672728;29;1288;-93
2023/10/23 01:33:18;;;;;;;11.20;5.28;;;;;;;16.18;60.87;100702.28;677725;29;1214;-94
2023/10/23 01:33:40;;;;;;;7.38;4.70;;;;;;;16.04;60.95;100694.34;680490;29;1234;-93
2023/10/23 01:34:01;;;;;;;6.25;4.60;;;;;;;16.00;61.07;100697.81;675750;29;1279;-94
2023/10/23 01:34:22;;;;;;;5.50;4.28;;;;;;;16.07;60.92;100711.91;680606;29;1352;-93
2023/10/23 01:34:43;;;;;;;5.35;4.07;;;;;;;15.99;60.92;100703.09;680299;29;1199;-94
2023/10/23 01:35:04;;;;;;;4.40;3.75;;;;;;;16.00;61.21;100703.09;675870;29;1182;-94
2023/10/23 01:35:25;;;;;;;4.43;3.92;;;;;;;15.98;61.11;100714.50;680511;29;1272;-94
2023/10/23 01:35:45;;;;;;;5.40;4.13;;;;;;;15.98;61.18;100718.00;683339;28;1203;-93
2023/10/23 01:36:06;;;;;;;7.30;4.50;;;;;;;15.94;61.13;100718.00;680486;28;1531;-93
2023/10/23 01:36:27;;;;;;;7.32;4.30;;;;;;;15.93;61.25;100716.22;680464;29;1267;-94
2023/10/23 01:36:48;;;;;;;6.70;4.10;;;;;;;15.86;61.18;100710.94;673068;29;1218;-93
2023/10/23 01:37:09;;;;;;;5.65;4.15;;;;;;;15.86;61.31;100710.06;670214;29;1313;-95
2023/10/23 01:37:30;;;;;;;5.63;4.35;;;;;;;15.83;61.43;100716.19;677768;29;1191;-94
2023/10/23 01:37:51;;;;;;;6.20;4.53;;;;;;;15.75;61.54;100702.13;683062;29;1337;-94
2023/10/23 01:38:13;;;;;;;6.72;4.30;;;;;;;15.70;61.42;100699.47;680522;29;1293;-94
2023/10/23 01:38:34;;;;;;;5.85;4.00;;;;;;;15.78;61.40;100714.41;677356;29;1256;-94
2023/10/23 01:38:55;;;;;;;5.20;3.90;;;;;;;15.77;61.58;100721.41;677899;29;1193;-94
2023/10/23 01:39:16;;;;;;;4.82;4.05;;;;;;;15.72;61.69;100702.09;678341;29;1225;-94
2023/10/23 01:39:37;;;;;;;5.47;4.28;;;;;;;15.77;61.70;100710.88;677908;29;1190;-94
2023/10/23 01:39:58;;;;;;;6.45;4.60;;;;;;;15.76;61.65;100712.63;680456;29;1199;-94
2023/10/23 01:40:19;;;;;;;6.00;4.50;;;;;;;15.75;61.64;100700.34;678074;29;1197;-94
2023/10/23 01:40:40;;;;;;;6.55;4.50;;;;;;;15.71;61.64;100705.59;675830;29;1211;-95
2023/10/23 01:41:00;;;;;;;5.20;3.90;;;;;;;15.74;61.66;100710.88;683196;28;1156;-96
2023/10/23 01:41:21;;;;;;;6.72;4.35;;;;;;;15.68;61.58;100698.56;677614;29;1267;-93
2023/10/23 01:41:42;;;;;;;6.47;4.40;;;;;;;15.72;61.55;100704.72;673157;29;1254;-94
2023/10/23 01:42:03;;;;;;;8.77;5.22;;;;;;;15.67;61.58;100698.56;675317;29;1244;-95
2023/10/23 01:42:28;;;;;;;8.07;5.18;;;;;;;15.68;61.55;100697.69;680664;29;1194;-94
2023/10/23 01:42:49;;;;;;;10.20;5.15;;;;;;;15.72;61.41;100718.75;680491;29;1380;-95
2023/10/23 01:43:10;;;;;;;8.70;4.87;;;;;;;15.60;61.63;100695.00;680513;29;1233;-94